sensor_id;sensor_type;location;lat;lon;timestamp;P1;durP1;ratioP1;P2;durP2;ratioP2
51298;SDS011;37382;45.192;9.790;2022-12-18T00:01:32;115.78;;;55.25;;
51298;SDS011;37382;45.192;9.790;2022-12-18T00:04:02;119.75;;;55.42;;
51298;SDS011;37382;45.192;9.790;2022-12-18T00:06:32;127.47;;;56.30;;
51298;SDS011;37382;45.192;9.790;2022-12-18T00:09:02;119.72;;;51.78;;
51298;SDS011;37382;45.192;9.790;2022-12-18T00:11:30;115.90;;;54.58;;
51298;SDS011;37382;45.192;9.790;2022-12-18T00:13:59;109.75;;;53.65;;
51298;SDS011;37382;45.192;9.790;2022-12-18T00:16:27;111.78;;;51.75;;
51298;SDS011;37382;45.192;9.790;2022-12-18T00:18:57;106.28;;;52.50;;
51298;SDS011;37382;45.192;9.790;2022-12-18T00:21:25;111.88;;;53.60;;
51298;SDS011;37382;45.192;9.790;2022-12-18T00:23:54;107.55;;;52.75;;
51298;SDS011;37382;45.192;9.790;2022-12-18T00:26:22;106.78;;;50.35;;
51298;SDS011;37382;45.192;9.790;2022-12-18T00:28:57;110.63;;;51.92;;
51298;SDS011;37382;45.192;9.790;2022-12-18T00:31:26;107.07;;;51.17;;
51298;SDS011;37382;45.192;9.790;2022-12-18T00:33:55;98.40;;;50.60;;
51298;SDS011;37382;45.192;9.790;2022-12-18T00:36:24;104.00;;;50.42;;
51298;SDS011;37382;45.192;9.790;2022-12-18T00:38:57;94.88;;;50.30;;
51298;SDS011;37382;45.192;9.790;2022-12-18T00:41:25;104.53;;;50.42;;
51298;SDS011;37382;45.192;9.790;2022-12-18T00:44:13;97.60;;;48.92;;
51298;SDS011;37382;45.192;9.790;2022-12-18T00:46:42;91.63;;;46.10;;
51298;SDS011;37382;45.192;9.790;2022-12-18T00:49:11;101.18;;;47.78;;
51298;SDS011;37382;45.192;9.790;2022-12-18T00:51:38;93.22;;;45.20;;
51298;SDS011;37382;45.192;9.790;2022-12-18T00:54:06;96.57;;;44.97;;
51298;SDS011;37382;45.192;9.790;2022-12-18T00:56:38;87.18;;;44.38;;
51298;SDS011;37382;45.192;9.790;2022-12-18T00:59:16;92.45;;;46.30;;
51298;SDS011;37382;45.192;9.790;2022-12-18T01:01:45;96.15;;;45.20;;
51298;SDS011;37382;45.192;9.790;2022-12-18T01:04:14;91.13;;;47.70;;
51298;SDS011;37382;45.192;9.790;2022-12-18T01:06:44;93.90;;;46.80;;
51298;SDS011;37382;45.192;9.790;2022-12-18T01:09:12;86.10;;;43.03;;
51298;SDS011;37382;45.192;9.790;2022-12-18T01:11:40;92.40;;;43.53;;
51298;SDS011;37382;45.192;9.790;2022-12-18T01:14:08;86.85;;;44.38;;
51298;SDS011;37382;45.192;9.790;2022-12-18T01:16:37;86.15;;;44.45;;
51298;SDS011;37382;45.192;9.790;2022-12-18T01:19:04;87.63;;;44.47;;
51298;SDS011;37382;45.192;9.790;2022-12-18T01:21:32;80.25;;;43.35;;
51298;SDS011;37382;45.192;9.790;2022-12-18T01:24:03;83.65;;;42.67;;
51298;SDS011;37382;45.192;9.790;2022-12-18T01:26:31;85.70;;;44.08;;
51298;SDS011;37382;45.192;9.790;2022-12-18T01:28:59;81.47;;;43.83;;
51298;SDS011;37382;45.192;9.790;2022-12-18T01:31:27;83.32;;;43.33;;
51298;SDS011;37382;45.192;9.790;2022-12-18T01:34:02;80.03;;;42.38;;
51298;SDS011;37382;45.192;9.790;2022-12-18T01:36:32;81.40;;;41.67;;
51298;SDS011;37382;45.192;9.790;2022-12-18T01:39:12;70.13;;;37.67;;
51298;SDS011;37382;45.192;9.790;2022-12-18T01:41:41;78.60;;;37.83;;
51298;SDS011;37382;45.192;9.790;2022-12-18T01:47:44;70.30;;;37.30;;
51298;SDS011;37382;45.192;9.790;2022-12-18T01:52:46;74.43;;;37.17;;
51298;SDS011;37382;45.192;9.790;2022-12-18T01:55:17;69.13;;;36.33;;
51298;SDS011;37382;45.192;9.790;2022-12-18T01:57:47;78.78;;;37.35;;
51298;SDS011;37382;45.192;9.790;2022-12-18T02:00:19;74.22;;;38.20;;
51298;SDS011;37382;45.192;9.790;2022-12-18T02:02:48;73.43;;;36.85;;
51298;SDS011;37382;45.192;9.790;2022-12-18T02:05:23;73.25;;;36.42;;
51298;SDS011;37382;45.192;9.790;2022-12-18T02:08:09;75.00;;;36.15;;
51298;SDS011;37382;45.192;9.790;2022-12-18T02:19:02;69.03;;;34.80;;
51298;SDS011;37382;45.192;9.790;2022-12-18T02:21:46;67.53;;;33.47;;
51298;SDS011;37382;45.192;9.790;2022-12-18T02:27:05;59.63;;;31.52;;
51298;SDS011;37382;45.192;9.790;2022-12-18T02:29:43;60.97;;;30.98;;
51298;SDS011;37382;45.192;9.790;2022-12-18T02:32:28;59.63;;;33.20;;
51298;SDS011;37382;45.192;9.790;2022-12-18T02:35:01;59.80;;;31.92;;
51298;SDS011;37382;45.192;9.790;2022-12-18T02:37:31;58.53;;;31.83;;
51298;SDS011;37382;45.192;9.790;2022-12-18T02:40:03;53.67;;;30.15;;
51298;SDS011;37382;45.192;9.790;2022-12-18T02:42:34;56.00;;;30.25;;
51298;SDS011;37382;45.192;9.790;2022-12-18T02:45:04;57.28;;;31.10;;
51298;SDS011;37382;45.192;9.790;2022-12-18T02:47:36;58.65;;;31.13;;
51298;SDS011;37382;45.192;9.790;2022-12-18T02:58:04;54.15;;;29.88;;
51298;SDS011;37382;45.192;9.790;2022-12-18T03:03:39;55.85;;;30.15;;
51298;SDS011;37382;45.192;9.790;2022-12-18T03:06:10;59.70;;;29.10;;
51298;SDS011;37382;45.192;9.790;2022-12-18T03:08:47;58.00;;;30.45;;
51298;SDS011;37382;45.192;9.790;2022-12-18T03:11:23;59.58;;;30.63;;
51298;SDS011;37382;45.192;9.790;2022-12-18T03:14:13;62.97;;;31.83;;
51298;SDS011;37382;45.192;9.790;2022-12-18T03:16:46;62.80;;;32.63;;
51298;SDS011;37382;45.192;9.790;2022-12-18T03:19:19;69.07;;;34.83;;
51298;SDS011;37382;45.192;9.790;2022-12-18T03:21:56;60.35;;;32.92;;
51298;SDS011;37382;45.192;9.790;2022-12-18T03:24:26;72.18;;;34.92;;
51298;SDS011;37382;45.192;9.790;2022-12-18T03:26:58;73.07;;;34.25;;
51298;SDS011;37382;45.192;9.790;2022-12-18T03:32:13;89.18;;;41.78;;
51298;SDS011;37382;45.192;9.790;2022-12-18T03:34:45;86.03;;;42.28;;
51298;SDS011;37382;45.192;9.790;2022-12-18T03:37:18;93.30;;;43.60;;
51298;SDS011;37382;45.192;9.790;2022-12-18T03:39:47;86.70;;;43.38;;
51298;SDS011;37382;45.192;9.790;2022-12-18T03:54:00;71.88;;;39.20;;
51298;SDS011;37382;45.192;9.790;2022-12-18T03:56:37;74.10;;;38.28;;
51298;SDS011;37382;45.192;9.790;2022-12-18T03:59:10;80.43;;;38.00;;
51298;SDS011;37382;45.192;9.790;2022-12-18T04:01:45;77.30;;;38.42;;
51298;SDS011;37382;45.192;9.790;2022-12-18T04:04:16;71.15;;;37.65;;
51298;SDS011;37382;45.192;9.790;2022-12-18T04:06:46;73.57;;;35.70;;
51298;SDS011;37382;45.192;9.790;2022-12-18T04:09:19;72.88;;;36.03;;
51298;SDS011;37382;45.192;9.790;2022-12-18T04:11:48;71.07;;;35.55;;
51298;SDS011;37382;45.192;9.790;2022-12-18T04:14:16;68.63;;;35.60;;
51298;SDS011;37382;45.192;9.790;2022-12-18T04:16:47;68.88;;;33.60;;
51298;SDS011;37382;45.192;9.790;2022-12-18T04:19:17;64.63;;;34.75;;
51298;SDS011;37382;45.192;9.790;2022-12-18T04:21:47;61.97;;;33.58;;
51298;SDS011;37382;45.192;9.790;2022-12-18T04:24:14;62.95;;;33.65;;
51298;SDS011;37382;45.192;9.790;2022-12-18T04:26:51;60.47;;;32.78;;
51298;SDS011;37382;45.192;9.790;2022-12-18T04:29:25;69.63;;;34.38;;
51298;SDS011;37382;45.192;9.790;2022-12-18T04:31:52;67.00;;;35.80;;
51298;SDS011;37382;45.192;9.790;2022-12-18T04:34:22;63.13;;;33.83;;
51298;SDS011;37382;45.192;9.790;2022-12-18T04:36:52;67.82;;;34.15;;
51298;SDS011;37382;45.192;9.790;2022-12-18T04:39:21;67.45;;;35.55;;
51298;SDS011;37382;45.192;9.790;2022-12-18T04:41:51;67.93;;;34.97;;
51298;SDS011;37382;45.192;9.790;2022-12-18T04:44:18;71.38;;;35.08;;
51298;SDS011;37382;45.192;9.790;2022-12-18T04:46:45;76.60;;;36.60;;
51298;SDS011;37382;45.192;9.790;2022-12-18T04:49:13;72.93;;;38.53;;
51298;SDS011;37382;45.192;9.790;2022-12-18T04:51:41;72.40;;;36.47;;
51298;SDS011;37382;45.192;9.790;2022-12-18T04:54:08;70.75;;;37.95;;
51298;SDS011;37382;45.192;9.790;2022-12-18T04:56:36;80.10;;;38.00;;
51298;SDS011;37382;45.192;9.790;2022-12-18T04:59:03;76.30;;;35.67;;
51298;SDS011;37382;45.192;9.790;2022-12-18T05:01:31;75.47;;;35.55;;
51298;SDS011;37382;45.192;9.790;2022-12-18T05:04:01;70.05;;;35.15;;
51298;SDS011;37382;45.192;9.790;2022-12-18T05:06:29;70.07;;;35.92;;
51298;SDS011;37382;45.192;9.790;2022-12-18T05:08:57;77.97;;;35.80;;
51298;SDS011;37382;45.192;9.790;2022-12-18T05:11:25;77.70;;;36.65;;
51298;SDS011;37382;45.192;9.790;2022-12-18T05:13:52;72.03;;;34.88;;
51298;SDS011;37382;45.192;9.790;2022-12-18T05:16:19;77.60;;;35.25;;
51298;SDS011;37382;45.192;9.790;2022-12-18T05:18:47;73.32;;;34.05;;
51298;SDS011;37382;45.192;9.790;2022-12-18T05:21:16;75.78;;;34.65;;
51298;SDS011;37382;45.192;9.790;2022-12-18T05:23:43;69.43;;;33.55;;
51298;SDS011;37382;45.192;9.790;2022-12-18T05:26:14;69.55;;;32.53;;
51298;SDS011;37382;45.192;9.790;2022-12-18T05:28:43;70.65;;;33.83;;
51298;SDS011;37382;45.192;9.790;2022-12-18T05:31:12;72.45;;;33.15;;
51298;SDS011;37382;45.192;9.790;2022-12-18T05:33:39;72.80;;;33.45;;
51298;SDS011;37382;45.192;9.790;2022-12-18T05:36:08;73.07;;;31.48;;
51298;SDS011;37382;45.192;9.790;2022-12-18T05:38:37;65.30;;;30.52;;
51298;SDS011;37382;45.192;9.790;2022-12-18T05:41:06;67.32;;;30.38;;
51298;SDS011;37382;45.192;9.790;2022-12-18T05:43:36;67.53;;;29.70;;
51298;SDS011;37382;45.192;9.790;2022-12-18T05:46:10;64.85;;;30.08;;
51298;SDS011;37382;45.192;9.790;2022-12-18T05:48:40;71.90;;;31.58;;
51298;SDS011;37382;45.192;9.790;2022-12-18T05:51:09;73.95;;;32.42;;
51298;SDS011;37382;45.192;9.790;2022-12-18T05:53:42;69.78;;;31.20;;
51298;SDS011;37382;45.192;9.790;2022-12-18T05:56:14;78.32;;;31.75;;
51298;SDS011;37382;45.192;9.790;2022-12-18T05:58:43;73.07;;;30.80;;
51298;SDS011;37382;45.192;9.790;2022-12-18T06:01:12;71.72;;;31.20;;
51298;SDS011;37382;45.192;9.790;2022-12-18T06:03:43;75.57;;;31.80;;
51298;SDS011;37382;45.192;9.790;2022-12-18T06:06:21;84.55;;;32.72;;
51298;SDS011;37382;45.192;9.790;2022-12-18T06:08:50;69.18;;;30.92;;
51298;SDS011;37382;45.192;9.790;2022-12-18T06:11:19;71.93;;;30.42;;
51298;SDS011;37382;45.192;9.790;2022-12-18T06:13:55;69.35;;;31.27;;
51298;SDS011;37382;45.192;9.790;2022-12-18T06:16:25;63.95;;;29.10;;
51298;SDS011;37382;45.192;9.790;2022-12-18T06:18:57;58.78;;;28.67;;
51298;SDS011;37382;45.192;9.790;2022-12-18T06:21:26;61.45;;;29.30;;
51298;SDS011;37382;45.192;9.790;2022-12-18T06:23:54;63.78;;;29.77;;
51298;SDS011;37382;45.192;9.790;2022-12-18T06:26:22;66.80;;;29.95;;
51298;SDS011;37382;45.192;9.790;2022-12-18T06:28:54;62.67;;;29.55;;
51298;SDS011;37382;45.192;9.790;2022-12-18T06:31:22;68.53;;;30.67;;
51298;SDS011;37382;45.192;9.790;2022-12-18T06:33:49;57.15;;;30.10;;
51298;SDS011;37382;45.192;9.790;2022-12-18T06:36:17;50.55;;;27.55;;
51298;SDS011;37382;45.192;9.790;2022-12-18T06:38:44;53.30;;;27.75;;
51298;SDS011;37382;45.192;9.790;2022-12-18T06:41:12;50.17;;;26.15;;
51298;SDS011;37382;45.192;9.790;2022-12-18T06:43:42;46.70;;;25.02;;
51298;SDS011;37382;45.192;9.790;2022-12-18T06:46:10;48.78;;;26.02;;
51298;SDS011;37382;45.192;9.790;2022-12-18T06:48:39;47.70;;;26.20;;
51298;SDS011;37382;45.192;9.790;2022-12-18T06:51:07;49.33;;;26.25;;
51298;SDS011;37382;45.192;9.790;2022-12-18T06:53:34;43.83;;;25.27;;
51298;SDS011;37382;45.192;9.790;2022-12-18T06:56:02;49.78;;;26.50;;
51298;SDS011;37382;45.192;9.790;2022-12-18T06:58:37;47.72;;;26.88;;
51298;SDS011;37382;45.192;9.790;2022-12-18T07:01:07;53.85;;;27.00;;
51298;SDS011;37382;45.192;9.790;2022-12-18T07:03:38;48.25;;;26.08;;
51298;SDS011;37382;45.192;9.790;2022-12-18T07:06:17;49.25;;;27.88;;
51298;SDS011;37382;45.192;9.790;2022-12-18T07:08:46;56.17;;;27.98;;
51298;SDS011;37382;45.192;9.790;2022-12-18T07:11:15;49.42;;;27.63;;
51298;SDS011;37382;45.192;9.790;2022-12-18T07:13:44;57.30;;;27.67;;
51298;SDS011;37382;45.192;9.790;2022-12-18T07:16:16;57.25;;;28.85;;
51298;SDS011;37382;45.192;9.790;2022-12-18T07:18:52;51.40;;;29.52;;
51298;SDS011;37382;45.192;9.790;2022-12-18T07:21:22;51.58;;;28.73;;
51298;SDS011;37382;45.192;9.790;2022-12-18T07:23:50;50.83;;;29.02;;
51298;SDS011;37382;45.192;9.790;2022-12-18T07:26:19;53.28;;;27.08;;
51298;SDS011;37382;45.192;9.790;2022-12-18T07:28:48;51.05;;;28.80;;
51298;SDS011;37382;45.192;9.790;2022-12-18T07:31:20;50.25;;;26.88;;
51298;SDS011;37382;45.192;9.790;2022-12-18T07:33:49;57.45;;;26.02;;
51298;SDS011;37382;45.192;9.790;2022-12-18T07:36:17;56.47;;;29.48;;
51298;SDS011;37382;45.192;9.790;2022-12-18T07:38:48;51.13;;;26.73;;
51298;SDS011;37382;45.192;9.790;2022-12-18T07:41:16;50.25;;;27.63;;
51298;SDS011;37382;45.192;9.790;2022-12-18T07:43:45;48.38;;;28.60;;
51298;SDS011;37382;45.192;9.790;2022-12-18T07:46:13;51.33;;;28.48;;
51298;SDS011;37382;45.192;9.790;2022-12-18T07:48:43;55.83;;;30.23;;
51298;SDS011;37382;45.192;9.790;2022-12-18T07:51:15;58.55;;;29.77;;
51298;SDS011;37382;45.192;9.790;2022-12-18T07:53:44;60.00;;;30.80;;
51298;SDS011;37382;45.192;9.790;2022-12-18T07:56:12;50.42;;;28.00;;
51298;SDS011;37382;45.192;9.790;2022-12-18T07:58:57;48.88;;;27.02;;
51298;SDS011;37382;45.192;9.790;2022-12-18T08:01:29;55.45;;;28.45;;
51298;SDS011;37382;45.192;9.790;2022-12-18T08:03:56;53.38;;;26.73;;
51298;SDS011;37382;45.192;9.790;2022-12-18T08:06:25;48.78;;;26.90;;
51298;SDS011;37382;45.192;9.790;2022-12-18T08:08:53;46.55;;;25.88;;
51298;SDS011;37382;45.192;9.790;2022-12-18T08:11:22;48.35;;;25.98;;
51298;SDS011;37382;45.192;9.790;2022-12-18T08:13:51;47.15;;;26.55;;
51298;SDS011;37382;45.192;9.790;2022-12-18T08:16:20;48.45;;;26.25;;
51298;SDS011;37382;45.192;9.790;2022-12-18T08:18:48;47.30;;;25.73;;
51298;SDS011;37382;45.192;9.790;2022-12-18T08:21:18;48.55;;;27.67;;
51298;SDS011;37382;45.192;9.790;2022-12-18T08:23:56;56.65;;;29.08;;
51298;SDS011;37382;45.192;9.790;2022-12-18T08:26:28;46.45;;;26.30;;
51298;SDS011;37382;45.192;9.790;2022-12-18T08:28:58;59.03;;;30.77;;
51298;SDS011;37382;45.192;9.790;2022-12-18T08:31:27;52.92;;;27.92;;
51298;SDS011;37382;45.192;9.790;2022-12-18T08:33:56;49.40;;;27.30;;
51298;SDS011;37382;45.192;9.790;2022-12-18T08:36:24;50.00;;;28.33;;
51298;SDS011;37382;45.192;9.790;2022-12-18T08:38:52;52.03;;;27.23;;
51298;SDS011;37382;45.192;9.790;2022-12-18T08:41:20;51.45;;;27.55;;
51298;SDS011;37382;45.192;9.790;2022-12-18T08:43:48;48.20;;;26.98;;
51298;SDS011;37382;45.192;9.790;2022-12-18T08:46:36;46.60;;;26.10;;
51298;SDS011;37382;45.192;9.790;2022-12-18T08:49:05;45.33;;;26.45;;
51298;SDS011;37382;45.192;9.790;2022-12-18T08:51:34;50.15;;;28.10;;
51298;SDS011;37382;45.192;9.790;2022-12-18T08:54:01;49.10;;;25.30;;
51298;SDS011;37382;45.192;9.790;2022-12-18T08:56:30;47.92;;;25.30;;
51298;SDS011;37382;45.192;9.790;2022-12-18T08:58:58;43.50;;;24.73;;
51298;SDS011;37382;45.192;9.790;2022-12-18T09:01:25;49.28;;;26.23;;
51298;SDS011;37382;45.192;9.790;2022-12-18T09:03:53;48.53;;;26.52;;
51298;SDS011;37382;45.192;9.790;2022-12-18T09:06:21;53.30;;;29.42;;
51298;SDS011;37382;45.192;9.790;2022-12-18T09:08:49;48.75;;;27.52;;
51298;SDS011;37382;45.192;9.790;2022-12-18T09:11:24;50.67;;;27.23;;
51298;SDS011;37382;45.192;9.790;2022-12-18T09:13:54;45.72;;;26.15;;
51298;SDS011;37382;45.192;9.790;2022-12-18T09:16:23;49.58;;;26.27;;
51298;SDS011;37382;45.192;9.790;2022-12-18T09:18:58;49.05;;;26.55;;
51298;SDS011;37382;45.192;9.790;2022-12-18T09:21:27;50.60;;;26.70;;
51298;SDS011;37382;45.192;9.790;2022-12-18T09:24:00;49.95;;;27.27;;
51298;SDS011;37382;45.192;9.790;2022-12-18T09:26:28;48.08;;;26.88;;
51298;SDS011;37382;45.192;9.790;2022-12-18T09:28:55;47.35;;;26.63;;
51298;SDS011;37382;45.192;9.790;2022-12-18T09:31:23;53.67;;;28.50;;
51298;SDS011;37382;45.192;9.790;2022-12-18T09:33:51;54.65;;;28.42;;
51298;SDS011;37382;45.192;9.790;2022-12-18T09:36:19;55.85;;;29.27;;
51298;SDS011;37382;45.192;9.790;2022-12-18T09:38:47;53.05;;;26.52;;
51298;SDS011;37382;45.192;9.790;2022-12-18T09:44:05;56.08;;;28.17;;
51298;SDS011;37382;45.192;9.790;2022-12-18T09:46:38;57.47;;;28.58;;
51298;SDS011;37382;45.192;9.790;2022-12-18T09:49:12;57.17;;;28.23;;
51298;SDS011;37382;45.192;9.790;2022-12-18T09:51:47;62.28;;;32.00;;
51298;SDS011;37382;45.192;9.790;2022-12-18T09:54:26;57.70;;;28.15;;
51298;SDS011;37382;45.192;9.790;2022-12-18T09:57:00;59.42;;;29.35;;
51298;SDS011;37382;45.192;9.790;2022-12-18T10:02:12;61.10;;;30.48;;
51298;SDS011;37382;45.192;9.790;2022-12-18T10:04:41;62.28;;;28.80;;
51298;SDS011;37382;45.192;9.790;2022-12-18T10:07:13;60.97;;;29.73;;
51298;SDS011;37382;45.192;9.790;2022-12-18T10:09:52;63.05;;;30.17;;
51298;SDS011;37382;45.192;9.790;2022-12-18T10:20:38;66.80;;;33.08;;
51298;SDS011;37382;45.192;9.790;2022-12-18T10:26:12;65.60;;;31.30;;
51298;SDS011;37382;45.192;9.790;2022-12-18T10:28:40;64.53;;;31.42;;
51298;SDS011;37382;45.192;9.790;2022-12-18T10:31:44;58.88;;;30.35;;
51298;SDS011;37382;45.192;9.790;2022-12-18T10:34:04;59.30;;;30.23;;
51298;SDS011;37382;45.192;9.790;2022-12-18T10:36:31;60.60;;;30.73;;
51298;SDS011;37382;45.192;9.790;2022-12-18T10:39:13;53.60;;;30.55;;
51298;SDS011;37382;45.192;9.790;2022-12-18T10:41:49;58.65;;;31.92;;
51298;SDS011;37382;45.192;9.790;2022-12-18T10:46:54;63.65;;;29.73;;
51298;SDS011;37382;45.192;9.790;2022-12-18T10:49:35;61.30;;;29.20;;
51298;SDS011;37382;45.192;9.790;2022-12-18T10:52:07;58.30;;;30.17;;
51298;SDS011;37382;45.192;9.790;2022-12-18T10:54:49;59.05;;;29.65;;
51298;SDS011;37382;45.192;9.790;2022-12-18T10:57:38;57.70;;;29.77;;
51298;SDS011;37382;45.192;9.790;2022-12-18T11:02:49;54.28;;;29.38;;
51298;SDS011;37382;45.192;9.790;2022-12-18T11:05:30;59.67;;;29.42;;
51298;SDS011;37382;45.192;9.790;2022-12-18T11:08:01;63.45;;;28.88;;
51298;SDS011;37382;45.192;9.790;2022-12-18T11:15:47;55.22;;;28.60;;
51298;SDS011;37382;45.192;9.790;2022-12-18T11:21:50;55.05;;;29.60;;
51298;SDS011;37382;45.192;9.790;2022-12-18T11:24:39;51.33;;;27.88;;
51298;SDS011;37382;45.192;9.790;2022-12-18T11:27:15;60.42;;;31.08;;
51298;SDS011;37382;45.192;9.790;2022-12-18T11:29:45;57.05;;;29.45;;
51298;SDS011;37382;45.192;9.790;2022-12-18T11:35:42;51.20;;;26.88;;
51298;SDS011;37382;45.192;9.790;2022-12-18T11:38:06;48.75;;;26.88;;
51298;SDS011;37382;45.192;9.790;2022-12-18T11:40:44;47.15;;;26.45;;
51298;SDS011;37382;45.192;9.790;2022-12-18T11:43:19;54.45;;;29.08;;
51298;SDS011;37382;45.192;9.790;2022-12-18T11:45:53;54.63;;;28.60;;
51298;SDS011;37382;45.192;9.790;2022-12-18T11:48:45;55.97;;;31.50;;
51298;SDS011;37382;45.192;9.790;2022-12-18T11:51:24;65.13;;;34.72;;
51298;SDS011;37382;45.192;9.790;2022-12-18T11:54:00;66.10;;;35.03;;
51298;SDS011;37382;45.192;9.790;2022-12-18T11:56:39;61.78;;;33.30;;
51298;SDS011;37382;45.192;9.790;2022-12-18T11:59:43;60.90;;;34.45;;
51298;SDS011;37382;45.192;9.790;2022-12-18T12:02:42;60.55;;;33.70;;
51298;SDS011;37382;45.192;9.790;2022-12-18T12:30:30;67.30;;;35.00;;
51298;SDS011;37382;45.192;9.790;2022-12-18T12:33:26;66.70;;;35.17;;
51298;SDS011;37382;45.192;9.790;2022-12-18T12:39:01;65.60;;;34.50;;
51298;SDS011;37382;45.192;9.790;2022-12-18T12:41:32;75.43;;;33.95;;
51298;SDS011;37382;45.192;9.790;2022-12-18T12:44:22;65.00;;;33.10;;
51298;SDS011;37382;45.192;9.790;2022-12-18T12:46:55;72.30;;;39.17;;
51298;SDS011;37382;45.192;9.790;2022-12-18T12:49:29;59.85;;;34.00;;
51298;SDS011;37382;45.192;9.790;2022-12-18T12:52:18;56.25;;;32.95;;
51298;SDS011;37382;45.192;9.790;2022-12-18T12:54:59;63.55;;;34.45;;
51298;SDS011;37382;45.192;9.790;2022-12-18T12:57:43;60.10;;;32.20;;
51298;SDS011;37382;45.192;9.790;2022-12-18T13:00:39;61.20;;;32.92;;
51298;SDS011;37382;45.192;9.790;2022-12-18T13:03:29;59.10;;;33.42;;
51298;SDS011;37382;45.192;9.790;2022-12-18T13:09:13;61.58;;;33.35;;
51298;SDS011;37382;45.192;9.790;2022-12-18T13:11:42;63.05;;;35.25;;
51298;SDS011;37382;45.192;9.790;2022-12-18T13:14:32;63.42;;;33.17;;
51298;SDS011;37382;45.192;9.790;2022-12-18T13:19:51;65.35;;;33.33;;
51298;SDS011;37382;45.192;9.790;2022-12-18T13:28:13;63.38;;;33.38;;
51298;SDS011;37382;45.192;9.790;2022-12-18T13:41:42;61.78;;;33.50;;
51298;SDS011;37382;45.192;9.790;2022-12-18T13:44:13;69.25;;;35.55;;
51298;SDS011;37382;45.192;9.790;2022-12-18T13:46:51;68.57;;;34.28;;
51298;SDS011;37382;45.192;9.790;2022-12-18T13:49:24;69.00;;;36.92;;
51298;SDS011;37382;45.192;9.790;2022-12-18T13:51:57;69.18;;;34.92;;
51298;SDS011;37382;45.192;9.790;2022-12-18T13:54:39;73.55;;;36.25;;
51298;SDS011;37382;45.192;9.790;2022-12-18T14:02:50;72.90;;;36.47;;
51298;SDS011;37382;45.192;9.790;2022-12-18T14:05:26;62.53;;;34.80;;
51298;SDS011;37382;45.192;9.790;2022-12-18T14:08:05;73.65;;;37.13;;
51298;SDS011;37382;45.192;9.790;2022-12-18T14:10:44;73.32;;;37.13;;
51298;SDS011;37382;45.192;9.790;2022-12-18T14:13:19;61.13;;;32.90;;
51298;SDS011;37382;45.192;9.790;2022-12-18T14:15:56;63.65;;;33.05;;
51298;SDS011;37382;45.192;9.790;2022-12-18T14:18:36;68.70;;;33.38;;
51298;SDS011;37382;45.192;9.790;2022-12-18T14:21:20;74.13;;;33.15;;
51298;SDS011;37382;45.192;9.790;2022-12-18T14:24:02;74.45;;;34.95;;
51298;SDS011;37382;45.192;9.790;2022-12-18T14:26:31;63.50;;;35.45;;
51298;SDS011;37382;45.192;9.790;2022-12-18T14:29:14;73.22;;;37.38;;
51298;SDS011;37382;45.192;9.790;2022-12-18T14:32:03;72.07;;;35.22;;
51298;SDS011;37382;45.192;9.790;2022-12-18T14:34:44;65.25;;;35.38;;
51298;SDS011;37382;45.192;9.790;2022-12-18T14:37:13;67.93;;;36.15;;
51298;SDS011;37382;45.192;9.790;2022-12-18T14:39:53;72.15;;;37.03;;
51298;SDS011;37382;45.192;9.790;2022-12-18T14:42:22;73.65;;;37.75;;
51298;SDS011;37382;45.192;9.790;2022-12-18T14:44:49;69.80;;;36.35;;
51298;SDS011;37382;45.192;9.790;2022-12-18T14:47:37;74.65;;;37.20;;
51298;SDS011;37382;45.192;9.790;2022-12-18T14:50:11;78.38;;;35.58;;
51298;SDS011;37382;45.192;9.790;2022-12-18T14:52:41;71.43;;;34.95;;
51298;SDS011;37382;45.192;9.790;2022-12-18T14:55:17;76.22;;;40.88;;
51298;SDS011;37382;45.192;9.790;2022-12-18T14:57:49;87.25;;;42.22;;
51298;SDS011;37382;45.192;9.790;2022-12-18T15:00:20;88.03;;;40.05;;
51298;SDS011;37382;45.192;9.790;2022-12-18T15:02:50;81.72;;;41.20;;
51298;SDS011;37382;45.192;9.790;2022-12-18T15:05:28;78.35;;;37.65;;
51298;SDS011;37382;45.192;9.790;2022-12-18T15:07:59;88.68;;;41.90;;
51298;SDS011;37382;45.192;9.790;2022-12-18T15:10:30;88.80;;;43.17;;
51298;SDS011;37382;45.192;9.790;2022-12-18T15:20:45;69.75;;;37.85;;
51298;SDS011;37382;45.192;9.790;2022-12-18T15:23:36;71.72;;;35.78;;
51298;SDS011;37382;45.192;9.790;2022-12-18T15:26:14;79.22;;;34.85;;
51298;SDS011;37382;45.192;9.790;2022-12-18T15:28:44;84.93;;;38.90;;
51298;SDS011;37382;45.192;9.790;2022-12-18T15:31:22;81.35;;;39.60;;
51298;SDS011;37382;45.192;9.790;2022-12-18T15:36:29;97.18;;;46.95;;
51298;SDS011;37382;45.192;9.790;2022-12-18T15:38:57;85.32;;;39.97;;
51298;SDS011;37382;45.192;9.790;2022-12-18T15:41:31;78.03;;;38.33;;
51298;SDS011;37382;45.192;9.790;2022-12-18T15:44:02;76.13;;;37.47;;
51298;SDS011;37382;45.192;9.790;2022-12-18T15:46:42;76.95;;;36.92;;
51298;SDS011;37382;45.192;9.790;2022-12-18T15:49:10;72.93;;;36.83;;
51298;SDS011;37382;45.192;9.790;2022-12-18T15:51:38;76.65;;;37.67;;
51298;SDS011;37382;45.192;9.790;2022-12-18T15:54:08;73.10;;;35.97;;
51298;SDS011;37382;45.192;9.790;2022-12-18T15:56:40;72.53;;;36.38;;
51298;SDS011;37382;45.192;9.790;2022-12-18T15:59:26;75.60;;;35.85;;
51298;SDS011;37382;45.192;9.790;2022-12-18T16:01:54;79.10;;;36.78;;
51298;SDS011;37382;45.192;9.790;2022-12-18T16:04:22;76.05;;;36.03;;
51298;SDS011;37382;45.192;9.790;2022-12-18T16:06:50;74.75;;;35.80;;
51298;SDS011;37382;45.192;9.790;2022-12-18T16:09:41;76.80;;;36.88;;
51298;SDS011;37382;45.192;9.790;2022-12-18T16:12:13;78.55;;;37.45;;
51298;SDS011;37382;45.192;9.790;2022-12-18T16:14:46;87.93;;;38.80;;
51298;SDS011;37382;45.192;9.790;2022-12-18T16:17:13;88.50;;;39.35;;
51298;SDS011;37382;45.192;9.790;2022-12-18T16:19:41;81.55;;;37.33;;
51298;SDS011;37382;45.192;9.790;2022-12-18T16:22:28;76.88;;;37.35;;
51298;SDS011;37382;45.192;9.790;2022-12-18T16:24:57;82.10;;;40.40;;
51298;SDS011;37382;45.192;9.790;2022-12-18T16:27:25;84.65;;;39.95;;
51298;SDS011;37382;45.192;9.790;2022-12-18T16:29:53;80.18;;;39.90;;
51298;SDS011;37382;45.192;9.790;2022-12-18T16:32:21;80.80;;;38.22;;
51298;SDS011;37382;45.192;9.790;2022-12-18T16:34:49;80.32;;;38.47;;
51298;SDS011;37382;45.192;9.790;2022-12-18T16:37:16;78.28;;;37.17;;
51298;SDS011;37382;45.192;9.790;2022-12-18T16:39:44;84.47;;;42.20;;
51298;SDS011;37382;45.192;9.790;2022-12-18T16:42:14;77.13;;;38.72;;
51298;SDS011;37382;45.192;9.790;2022-12-18T16:44:46;78.65;;;38.08;;
51298;SDS011;37382;45.192;9.790;2022-12-18T16:47:15;82.57;;;37.22;;
51298;SDS011;37382;45.192;9.790;2022-12-18T16:49:43;83.68;;;39.05;;
51298;SDS011;37382;45.192;9.790;2022-12-18T16:52:12;75.30;;;37.50;;
51298;SDS011;37382;45.192;9.790;2022-12-18T16:54:40;76.40;;;37.47;;
51298;SDS011;37382;45.192;9.790;2022-12-18T16:57:08;78.13;;;37.10;;
51298;SDS011;37382;45.192;9.790;2022-12-18T16:59:39;71.90;;;35.58;;
51298;SDS011;37382;45.192;9.790;2022-12-18T17:02:14;74.10;;;36.83;;
51298;SDS011;37382;45.192;9.790;2022-12-18T17:04:51;75.78;;;37.88;;
51298;SDS011;37382;45.192;9.790;2022-12-18T17:07:21;90.90;;;41.20;;
51298;SDS011;37382;45.192;9.790;2022-12-18T17:09:48;91.28;;;40.28;;
51298;SDS011;37382;45.192;9.790;2022-12-18T17:12:17;81.35;;;39.03;;
51298;SDS011;37382;45.192;9.790;2022-12-18T17:14:45;89.43;;;40.92;;